createdAt,value
2023-04-16T00:00:37.645Z,1.95
2023-04-16T00:06:04.517Z,2.25
2023-04-16T00:11:13.108Z,2.05
2023-04-16T00:16:20.081Z,2.60
2023-04-16T00:21:26.785Z,2.15
2023-04-16T00:26:35.411Z,3.80
2023-04-16T00:31:42.228Z,1.80
2023-04-16T00:36:48.641Z,2.10
2023-04-16T00:41:57.047Z,2.72
2023-04-16T00:47:04.450Z,2.60
2023-04-16T00:52:13.074Z,2.63
2023-04-16T00:57:24.331Z,2.17
2023-04-16T01:02:31.018Z,2.72
2023-04-16T01:07:37.309Z,3.05
2023-04-16T01:12:45.333Z,2.83
2023-04-16T01:17:53.057Z,2.63
2023-04-16T01:23:01.283Z,3.03
2023-04-16T01:28:08.920Z,3.33
2023-04-16T01:33:18.386Z,3.45
2023-04-16T01:38:26.230Z,3.47
2023-04-16T01:43:32.780Z,3.20
2023-04-16T01:48:39.752Z,3.00
2023-04-16T01:53:47.747Z,3.47
2023-04-16T01:58:54.477Z,2.85
2023-04-16T02:04:02.311Z,3.25
2023-04-16T02:09:11.672Z,2.95
2023-04-16T02:14:19.151Z,3.53
2023-04-16T02:19:25.934Z,2.85
2023-04-16T02:24:34.450Z,3.00
2023-04-16T02:29:45.793Z,3.65
2023-04-16T02:34:57.442Z,2.80
2023-04-16T02:40:05.688Z,2.78
2023-04-16T02:45:13.709Z,4.20
2023-04-16T02:50:20.455Z,2.70
2023-04-16T02:55:29.715Z,3.05
2023-04-16T03:05:42.498Z,2.97
2023-04-16T03:10:51.227Z,2.83
2023-04-16T03:15:57.519Z,2.42
2023-04-16T03:21:03.855Z,2.53
2023-04-16T03:26:11.690Z,2.70
2023-04-16T03:31:18.803Z,3.10
2023-04-16T03:36:27.460Z,3.90
2023-04-16T03:41:35.870Z,2.83
2023-04-16T03:46:42.985Z,3.08
2023-04-16T03:51:49.383Z,2.97
2023-04-16T03:56:57.442Z,3.28
2023-04-16T04:02:04.179Z,3.67
2023-04-16T04:07:12.189Z,3.28
2023-04-16T04:12:20.238Z,3.55
2023-04-16T04:17:27.618Z,3.77
2023-04-16T04:22:35.108Z,3.88
2023-04-16T04:27:42.966Z,4.10
2023-04-16T04:32:49.489Z,4.38
2023-04-16T04:37:56.363Z,4.10
2023-04-16T04:43:04.252Z,4.72
2023-04-16T04:48:11.166Z,4.97
2023-04-16T04:53:17.745Z,4.68
2023-04-16T04:58:25.911Z,5.97
2023-04-16T05:03:33.408Z,5.47
2023-04-16T05:08:40.069Z,5.55
2023-04-16T05:13:48.039Z,5.20
2023-04-16T05:18:56.395Z,5.60
2023-04-16T05:24:02.917Z,6.03
2023-04-16T05:29:11.126Z,5.38
2023-04-16T05:34:17.754Z,5.57
2023-04-16T05:39:24.335Z,5.32
2023-04-16T05:44:32.292Z,5.75
2023-04-16T05:49:38.669Z,5.40
2023-04-16T05:54:45.308Z,5.90
2023-04-16T05:59:53.152Z,5.63
2023-04-16T06:05:01.912Z,6.25
2023-04-16T06:10:10.272Z,5.70
2023-04-16T06:15:18.709Z,6.78
2023-04-16T06:20:25.403Z,5.88
2023-04-16T06:25:31.840Z,7.03
2023-04-16T06:30:41.417Z,6.35
2023-04-16T06:35:49.354Z,6.57
2023-04-16T06:40:56.951Z,6.35
2023-04-16T06:46:04.968Z,6.65
2023-04-16T06:51:13.621Z,5.97
2023-04-16T06:56:21.830Z,5.47
2023-04-16T07:01:31.603Z,5.53
2023-04-16T07:06:38.342Z,5.18
2023-04-16T07:11:45.043Z,5.30
2023-04-16T07:16:53.230Z,5.18
2023-04-16T07:22:00.128Z,5.50
2023-04-16T07:27:06.836Z,5.28
2023-04-16T07:32:15.587Z,6.13
2023-04-16T07:42:29.716Z,5.40
2023-04-16T07:47:37.636Z,6.28
2023-04-16T07:52:45.846Z,7.13
2023-04-16T07:57:52.677Z,5.00
2023-04-16T08:03:01.071Z,4.30
2023-04-16T08:08:08.224Z,3.97
2023-04-16T08:13:15.124Z,3.92
2023-04-16T08:18:23.521Z,3.90
2023-04-16T08:23:30.134Z,5.05
2023-04-16T08:28:37.068Z,4.68
2023-04-16T08:33:45.203Z,4.82
2023-04-16T08:38:52.560Z,5.07
2023-04-16T08:44:01.758Z,4.10
2023-04-16T08:54:20.335Z,3.77
2023-04-16T08:59:30.140Z,3.55
2023-04-16T09:04:41.461Z,4.20
2023-04-16T09:09:50.473Z,4.38
2023-04-16T09:15:00.158Z,6.88
2023-04-16T09:20:11.364Z,3.83
2023-04-16T09:25:18.376Z,3.83
2023-04-16T09:30:27.548Z,3.38
2023-04-16T09:35:48.513Z,4.20
2023-04-16T09:41:09.192Z,3.58
2023-04-16T09:46:16.008Z,3.25
2023-04-16T09:51:25.214Z,3.60
2023-04-16T10:01:39.564Z,4.25
2023-04-16T10:07:03.864Z,3.80
2023-04-16T10:12:11.398Z,3.85
2023-04-16T10:17:18.976Z,4.10
2023-04-16T10:22:28.043Z,3.80
2023-04-16T10:27:35.236Z,4.65
2023-04-16T10:32:43.038Z,3.80
2023-04-16T10:37:52.028Z,3.70
2023-04-16T10:43:00.977Z,3.83
2023-04-16T10:48:10.216Z,4.03
2023-04-16T10:53:24.429Z,4.25
2023-04-16T10:58:32.153Z,4.68
2023-04-16T11:03:42.806Z,4.30
2023-04-16T11:08:55.446Z,3.70
2023-04-16T11:14:02.782Z,4.10
2023-04-16T11:19:09.656Z,4.38
2023-04-16T11:24:18.118Z,3.83
2023-04-16T11:29:24.758Z,4.57
2023-04-16T11:34:31.306Z,4.35
2023-04-16T11:39:51.567Z,3.35
2023-04-16T11:45:01.959Z,4.65
2023-04-16T11:50:25.259Z,4.25
2023-04-16T11:55:33.662Z,6.13
2023-04-16T12:00:40.647Z,6.90
2023-04-16T12:05:47.598Z,3.80
2023-04-16T12:11:00.062Z,3.63
2023-04-16T12:16:18.199Z,3.50
2023-04-16T12:21:24.833Z,3.63
2023-04-16T12:26:41.186Z,3.53
2023-04-16T12:31:48.977Z,3.80
2023-04-16T12:37:09.837Z,3.75
2023-04-16T12:42:18.975Z,4.18
2023-04-16T12:47:25.676Z,4.38
2023-04-16T12:52:32.877Z,3.72
2023-04-16T12:57:41.689Z,3.70
2023-04-16T13:07:55.779Z,4.40
2023-04-16T13:13:03.958Z,3.90
2023-04-16T13:18:10.668Z,3.73
2023-04-16T13:23:17.814Z,4.30
2023-04-16T13:28:26.627Z,4.20
2023-04-16T13:33:34.640Z,4.13
2023-04-16T13:38:42.577Z,4.47
2023-04-16T13:43:53.616Z,4.32
2023-04-16T13:54:08.121Z,3.83
2023-04-16T13:59:18.055Z,5.82
2023-04-16T14:04:25.615Z,4.57
2023-04-16T14:09:32.896Z,4.95
2023-04-16T14:14:41.317Z,4.97
2023-04-16T14:19:49.085Z,5.93
2023-04-16T14:24:56.534Z,4.70
2023-04-16T14:30:08.890Z,5.05
2023-04-16T14:35:16.701Z,5.28
2023-04-16T14:40:23.893Z,5.40
2023-04-16T14:45:33.132Z,4.93
2023-04-16T14:50:44.295Z,5.32
2023-04-16T14:55:58.940Z,4.57
2023-04-16T15:01:08.715Z,4.70
2023-04-16T15:06:16.769Z,4.82
2023-04-16T15:11:25.146Z,4.47
2023-04-16T15:16:34.211Z,4.03
2023-04-16T15:21:41.101Z,4.18
2023-04-16T15:26:49.825Z,4.38
2023-04-16T15:31:58.639Z,4.55
2023-04-16T15:37:06.674Z,4.18
2023-04-16T15:47:26.640Z,4.10
2023-04-16T15:52:37.163Z,4.22
2023-04-16T15:57:45.431Z,4.60
2023-04-16T16:02:55.412Z,4.43
2023-04-16T16:08:05.728Z,4.93
2023-04-16T16:13:18.709Z,4.97
2023-04-16T16:18:28.316Z,5.75
2023-04-16T16:23:36.785Z,6.18
2023-04-16T16:28:45.136Z,5.88
2023-04-16T16:33:53.719Z,5.88
2023-04-16T16:39:01.556Z,5.00
2023-04-16T16:44:09.622Z,5.83
2023-04-16T16:49:19.520Z,5.22
2023-04-16T16:59:35.929Z,4.97
2023-04-16T17:04:45.161Z,6.43
2023-04-16T17:09:52.627Z,6.95
2023-04-16T17:15:00.504Z,6.05
2023-04-16T17:20:12.649Z,8.20
2023-04-16T17:25:21.253Z,6.90
2023-04-16T17:30:29.300Z,5.55
2023-04-16T17:35:41.805Z,4.72
2023-04-16T17:40:52.124Z,5.53
2023-04-16T17:46:02.848Z,6.22
2023-04-16T17:51:17.113Z,6.28
2023-04-16T17:56:28.586Z,5.93
2023-04-16T18:01:37.482Z,5.63
2023-04-16T18:06:47.390Z,5.72
2023-04-16T18:11:57.978Z,5.97
2023-04-16T18:17:07.284Z,6.55
2023-04-16T18:22:21.192Z,6.95
2023-04-16T18:27:30.041Z,6.50
2023-04-16T18:32:48.619Z,6.82
2023-04-16T18:38:18.572Z,6.28
2023-04-16T18:43:28.216Z,6.68
2023-04-16T18:48:37.707Z,6.68
2023-04-16T18:53:48.107Z,6.47
2023-04-16T18:59:05.147Z,6.35
2023-04-16T19:04:16.804Z,7.80
2023-04-16T19:09:30.280Z,7.00
2023-04-16T19:14:47.018Z,8.63
2023-04-16T19:19:56.359Z,7.20
2023-04-16T19:25:06.199Z,7.45
2023-04-16T19:30:16.685Z,7.60
2023-04-16T19:35:31.773Z,7.85
2023-04-16T19:40:48.116Z,7.53
2023-04-16T19:45:57.794Z,7.38
2023-04-16T19:51:06.787Z,7.20
2023-04-16T19:56:18.067Z,7.57
2023-04-16T20:01:27.343Z,6.88
2023-04-16T20:06:36.261Z,7.13
2023-04-16T20:11:47.600Z,6.43
2023-04-16T20:16:56.087Z,6.85
2023-04-16T20:22:04.213Z,7.07
2023-04-16T20:27:15.567Z,6.65
2023-04-16T20:32:22.745Z,7.90
2023-04-16T20:37:31.739Z,7.50
2023-04-16T20:42:41.826Z,6.90
2023-04-16T20:47:49.657Z,6.60
2023-04-16T20:52:58.470Z,7.45
2023-04-16T20:58:07.627Z,7.50
2023-04-16T21:03:14.775Z,7.60
2023-04-16T21:08:22.228Z,7.47
2023-04-16T21:13:30.928Z,8.18
2023-04-16T21:18:38.054Z,7.73
2023-04-16T21:23:46.036Z,7.53
2023-04-16T21:28:55.130Z,8.40
2023-04-16T21:34:02.028Z,7.57
2023-04-16T21:39:09.138Z,9.43
2023-04-16T21:44:18.022Z,9.43
2023-04-16T21:49:25.220Z,8.60
2023-04-16T21:54:31.843Z,8.25
2023-04-16T21:59:40.400Z,7.47
2023-04-16T22:04:46.720Z,7.53
2023-04-16T22:09:53.834Z,7.20
2023-04-16T22:15:03.234Z,7.68
2023-04-16T22:20:13.680Z,8.68
2023-04-16T22:25:20.557Z,8.00
2023-04-16T22:30:28.776Z,7.88
2023-04-16T22:35:36.371Z,9.05
2023-04-16T22:40:42.993Z,8.63
2023-04-16T22:45:50.896Z,7.85
2023-04-16T22:50:57.409Z,8.43
2023-04-16T22:56:03.685Z,7.82
2023-04-16T23:01:11.724Z,7.80
2023-04-16T23:06:18.755Z,7.93
2023-04-16T23:11:27.222Z,7.53
2023-04-16T23:16:35.250Z,7.30
2023-04-16T23:21:41.800Z,7.63
2023-04-16T23:26:48.600Z,7.68
2023-04-16T23:31:58.869Z,7.47
2023-04-16T23:37:05.592Z,7.65
2023-04-16T23:42:12.189Z,8.20
2023-04-16T23:47:20.158Z,7.53
2023-04-16T23:52:26.802Z,6.10
2023-04-16T23:57:33.371Z,7.53
